sensor_id;sensor_type;location;lat;lon;timestamp;pressure;altitude;pressure_sealevel;temperature;humidity
44349;BME280;30068;50.986;4.564;2023-02-19T00:01:05;102056.81;;;19.56;54.83
44349;BME280;30068;50.986;4.564;2023-02-19T00:03:30;102061.38;;;19.55;55.11
44349;BME280;30068;50.986;4.564;2023-02-19T00:05:56;102065.94;;;19.55;55.04
44349;BME280;30068;50.986;4.564;2023-02-19T00:08:21;102059.53;;;19.56;55.17
44349;BME280;30068;50.986;4.564;2023-02-19T00:10:46;102050.41;;;19.57;55.18
44349;BME280;30068;50.986;4.564;2023-02-19T00:13:11;102054.81;;;19.58;55.20
44349;BME280;30068;50.986;4.564;2023-02-19T00:15:37;102062.22;;;19.56;55.32
44349;BME280;30068;50.986;4.564;2023-02-19T00:18:02;102058.53;;;19.57;55.35
44349;BME280;30068;50.986;4.564;2023-02-19T00:20:27;102054.81;;;19.58;55.31
44349;BME280;30068;50.986;4.564;2023-02-19T00:22:52;102053.09;;;19.57;55.36
44349;BME280;30068;50.986;4.564;2023-02-19T00:25:18;102053.09;;;19.57;55.41
44349;BME280;30068;50.986;4.564;2023-02-19T00:27:43;102056.66;;;19.57;55.41
44349;BME280;30068;50.986;4.564;2023-02-19T00:30:08;102053.97;;;19.57;55.49
44349;BME280;30068;50.986;4.564;2023-02-19T00:32:34;102053.97;;;19.57;55.64
44349;BME280;30068;50.986;4.564;2023-02-19T00:34:59;102054.81;;;19.58;55.49
44349;BME280;30068;50.986;4.564;2023-02-19T00:37:24;102046.69;;;19.58;55.08
44349;BME280;30068;50.986;4.564;2023-02-19T00:39:49;102043.13;;;19.57;55.44
44349;BME280;30068;50.986;4.564;2023-02-19T00:42:14;102046.69;;;19.58;55.20
44349;BME280;30068;50.986;4.564;2023-02-19T00:44:40;102042.94;;;19.59;55.32
44349;BME280;30068;50.986;4.564;2023-02-19T00:47:05;102042.28;;;19.57;55.06
44349;BME280;30068;50.986;4.564;2023-02-19T00:49:30;102039.56;;;19.57;55.20
44349;BME280;30068;50.986;4.564;2023-02-19T00:51:55;102043.13;;;19.57;55.37
44349;BME280;30068;50.986;4.564;2023-02-19T00:54:20;102046.84;;;19.56;55.41
44349;BME280;30068;50.986;4.564;2023-02-19T00:56:46;102043.28;;;19.56;55.28
44349;BME280;30068;50.986;4.564;2023-02-19T00:59:12;102050.41;;;19.57;55.17
44349;BME280;30068;50.986;4.564;2023-02-19T01:01:37;102053.09;;;19.57;55.07
44349;BME280;30068;50.986;4.564;2023-02-19T01:04:02;102053.09;;;19.57;55.31
44349;BME280;30068;50.986;4.564;2023-02-19T01:06:28;102060.38;;;19.56;55.33
44349;BME280;30068;50.986;4.564;2023-02-19T01:08:54;102067.66;;;19.56;55.12
44349;BME280;30068;50.986;4.564;2023-02-19T01:11:20;102073.06;;;19.56;55.29
44349;BME280;30068;50.986;4.564;2023-02-19T01:13:45;102064.94;;;19.56;55.15
44349;BME280;30068;50.986;4.564;2023-02-19T01:16:15;102065.09;;;19.54;55.24
44349;BME280;30068;50.986;4.564;2023-02-19T01:18:40;102077.78;;;19.54;54.93
44349;BME280;30068;50.986;4.564;2023-02-19T01:21:07;102076.78;;;19.55;55.19
44349;BME280;30068;50.986;4.564;2023-02-19T01:23:33;102077.63;;;19.55;55.13
44349;BME280;30068;50.986;4.564;2023-02-19T01:25:58;102071.34;;;19.55;54.95
44349;BME280;30068;50.986;4.564;2023-02-19T01:28:23;102065.94;;;19.55;54.86
44349;BME280;30068;50.986;4.564;2023-02-19T01:30:49;102075.06;;;19.54;55.10
44349;BME280;30068;50.986;4.564;2023-02-19T01:33:14;102077.78;;;19.54;54.93
44349;BME280;30068;50.986;4.564;2023-02-19T01:35:39;102074.06;;;19.55;54.85
44349;BME280;30068;50.986;4.564;2023-02-19T01:38:04;102078.78;;;19.53;55.04
44349;BME280;30068;50.986;4.564;2023-02-19T01:40:32;102090.59;;;19.52;54.94
44349;BME280;30068;50.986;4.564;2023-02-19T01:42:57;102083.34;;;19.52;55.13
44349;BME280;30068;50.986;4.564;2023-02-19T01:47:49;102085.19;;;19.52;55.26
44349;BME280;30068;50.986;4.564;2023-02-19T01:50:16;102089.59;;;19.53;54.87
44349;BME280;30068;50.986;4.564;2023-02-19T01:52:41;102093.16;;;19.53;54.87
44349;BME280;30068;50.986;4.564;2023-02-19T01:55:07;102086.22;;;19.51;55.11
44349;BME280;30068;50.986;4.564;2023-02-19T01:57:35;102084.38;;;19.51;54.86
44349;BME280;30068;50.986;4.564;2023-02-19T02:00:04;102094.16;;;19.52;54.64
44349;BME280;30068;50.986;4.564;2023-02-19T02:02:30;102081.47;;;19.53;54.91
44349;BME280;30068;50.986;4.564;2023-02-19T02:04:55;102086.22;;;19.51;54.66
44349;BME280;30068;50.986;4.564;2023-02-19T02:07:22;102086.22;;;19.51;54.88
44349;BME280;30068;50.986;4.564;2023-02-19T02:10:06;102078.25;;;19.49;54.78
44349;BME280;30068;50.986;4.564;2023-02-19T02:12:44;102087.22;;;19.50;54.83
44349;BME280;30068;50.986;4.564;2023-02-19T02:15:09;102082.81;;;19.49;54.56
44349;BME280;30068;50.986;4.564;2023-02-19T02:17:42;102096.34;;;19.49;54.77
44349;BME280;30068;50.986;4.564;2023-02-19T02:32:31;102092.63;;;19.50;54.78
44349;BME280;30068;50.986;4.564;2023-02-19T02:34:59;102096.50;;;19.47;54.92
44349;BME280;30068;50.986;4.564;2023-02-19T02:37:25;102094.78;;;19.46;54.90
44349;BME280;30068;50.986;4.564;2023-02-19T02:39:52;102094.50;;;19.49;54.72
44349;BME280;30068;50.986;4.564;2023-02-19T02:42:18;102095.50;;;19.48;55.25
44349;BME280;30068;50.986;4.564;2023-02-19T02:44:52;102093.63;;;19.49;55.02
44349;BME280;30068;50.986;4.564;2023-02-19T02:47:37;102104.47;;;19.49;55.01
44349;BME280;30068;50.986;4.564;2023-02-19T02:50:21;102091.94;;;19.48;54.66
44349;BME280;30068;50.986;4.564;2023-02-19T02:52:49;102094.63;;;19.48;54.66
44349;BME280;30068;50.986;4.564;2023-02-19T02:55:35;102091.06;;;19.47;54.98
44349;BME280;30068;50.986;4.564;2023-02-19T02:58:02;102099.31;;;19.46;54.82
44349;BME280;30068;50.986;4.564;2023-02-19T03:00:28;102098.44;;;19.45;54.81
44349;BME280;30068;50.986;4.564;2023-02-19T03:03:15;102103.88;;;19.45;54.52
44349;BME280;30068;50.986;4.564;2023-02-19T03:05:42;102099.31;;;19.46;54.61
44349;BME280;30068;50.986;4.564;2023-02-19T03:08:18;102110.13;;;19.46;54.53
44349;BME280;30068;50.986;4.564;2023-02-19T03:13:16;102109.16;;;19.47;54.61
44349;BME280;30068;50.986;4.564;2023-02-19T03:16:05;102102.19;;;19.44;54.66
44349;BME280;30068;50.986;4.564;2023-02-19T03:18:51;102113.88;;;19.45;54.59
44349;BME280;30068;50.986;4.564;2023-02-19T03:21:36;102116.72;;;19.43;54.62
44349;BME280;30068;50.986;4.564;2023-02-19T03:24:03;102113.16;;;19.43;54.23
44349;BME280;30068;50.986;4.564;2023-02-19T03:26:48;102115.88;;;19.43;54.46
44349;BME280;30068;50.986;4.564;2023-02-19T03:29:18;102119.56;;;19.42;54.55
44349;BME280;30068;50.986;4.564;2023-02-19T03:31:46;102123.13;;;19.42;54.33
44349;BME280;30068;50.986;4.564;2023-02-19T03:34:17;102124.84;;;19.43;54.47
44349;BME280;30068;50.986;4.564;2023-02-19T03:36:47;102124.00;;;19.43;54.52
44349;BME280;30068;50.986;4.564;2023-02-19T03:39:16;102117.88;;;19.41;54.26
44349;BME280;30068;50.986;4.564;2023-02-19T03:49:03;102126.00;;;19.41;54.31
44349;BME280;30068;50.986;4.564;2023-02-19T03:51:37;102142.22;;;19.41;54.39
44349;BME280;30068;50.986;4.564;2023-02-19T03:54:14;102144.09;;;19.40;54.24
44349;BME280;30068;50.986;4.564;2023-02-19T03:56:49;102146.09;;;19.38;54.31
44349;BME280;30068;50.986;4.564;2023-02-19T03:59:22;102149.50;;;19.40;54.08
44349;BME280;30068;50.986;4.564;2023-02-19T04:01:52;102152.53;;;19.37;54.27
44349;BME280;30068;50.986;4.564;2023-02-19T04:04:30;102159.63;;;19.38;54.09
44349;BME280;30068;50.986;4.564;2023-02-19T04:06:57;102159.78;;;19.37;54.21
44349;BME280;30068;50.986;4.564;2023-02-19T04:09:23;102167.75;;;19.38;54.44
44349;BME280;30068;50.986;4.564;2023-02-19T04:11:49;102170.63;;;19.37;54.34
44349;BME280;30068;50.986;4.564;2023-02-19T04:14:17;102169.78;;;19.36;54.43
44349;BME280;30068;50.986;4.564;2023-02-19T04:16:46;102172.63;;;19.34;54.42
44349;BME280;30068;50.986;4.564;2023-02-19T04:19:14;102171.63;;;19.36;54.51
44349;BME280;30068;50.986;4.564;2023-02-19T04:21:40;102178.88;;;19.35;54.25
44349;BME280;30068;50.986;4.564;2023-02-19T04:24:08;102181.59;;;19.35;54.35
44349;BME280;30068;50.986;4.564;2023-02-19T04:26:34;102180.75;;;19.34;54.48
44349;BME280;30068;50.986;4.564;2023-02-19T04:29:00;102175.31;;;19.34;54.64
44349;BME280;30068;50.986;4.564;2023-02-19T04:31:26;102184.31;;;19.35;54.57
44349;BME280;30068;50.986;4.564;2023-02-19T04:33:52;102186.16;;;19.34;54.70
44349;BME280;30068;50.986;4.564;2023-02-19T04:36:17;102182.59;;;19.34;54.43
44349;BME280;30068;50.986;4.564;2023-02-19T04:38:42;102188.16;;;19.32;54.52
44349;BME280;30068;50.986;4.564;2023-02-19T04:41:08;102197.97;;;19.33;54.43
44349;BME280;30068;50.986;4.564;2023-02-19T04:43:33;102193.56;;;19.32;54.60
44349;BME280;30068;50.986;4.564;2023-02-19T04:45:59;102203.41;;;19.33;54.38
44349;BME280;30068;50.986;4.564;2023-02-19T04:48:24;102199.16;;;19.31;54.26
44349;BME280;30068;50.986;4.564;2023-02-19T04:50:50;102200.81;;;19.32;54.63
44349;BME280;30068;50.986;4.564;2023-02-19T04:53:15;102204.56;;;19.31;54.44
44349;BME280;30068;50.986;4.564;2023-02-19T04:55:40;102208.94;;;19.32;54.36
44349;BME280;30068;50.986;4.564;2023-02-19T04:58:05;102215.38;;;19.31;54.16
44349;BME280;30068;50.986;4.564;2023-02-19T05:00:31;102212.50;;;19.32;54.35
44349;BME280;30068;50.986;4.564;2023-02-19T05:02:57;102218.09;;;19.31;54.14
44349;BME280;30068;50.986;4.564;2023-02-19T05:05:23;102218.91;;;19.31;54.46
44349;BME280;30068;50.986;4.564;2023-02-19T05:07:48;102215.53;;;19.29;54.58
44349;BME280;30068;50.986;4.564;2023-02-19T05:10:13;102218.25;;;19.29;54.24
44349;BME280;30068;50.986;4.564;2023-02-19T05:12:38;102218.25;;;19.29;54.46
44349;BME280;30068;50.986;4.564;2023-02-19T05:15:04;102215.66;;;19.28;54.39
44349;BME280;30068;50.986;4.564;2023-02-19T05:17:31;102225.38;;;19.30;54.39
44349;BME280;30068;50.986;4.564;2023-02-19T05:19:56;102224.66;;;19.28;54.10
44349;BME280;30068;50.986;4.564;2023-02-19T05:22:22;102233.63;;;19.29;54.19
44349;BME280;30068;50.986;4.564;2023-02-19T05:24:47;102238.19;;;19.28;54.19
44349;BME280;30068;50.986;4.564;2023-02-19T05:27:12;102239.91;;;19.29;54.18
44349;BME280;30068;50.986;4.564;2023-02-19T05:29:39;102240.19;;;19.26;54.22
44349;BME280;30068;50.986;4.564;2023-02-19T05:32:04;102243.59;;;19.28;54.56
44349;BME280;30068;50.986;4.564;2023-02-19T05:34:29;102246.44;;;19.27;54.21
44349;BME280;30068;50.986;4.564;2023-02-19T05:36:54;102251.84;;;19.27;54.38
44349;BME280;30068;50.986;4.564;2023-02-19T05:39:20;102255.41;;;19.27;54.30
44349;BME280;30068;50.986;4.564;2023-02-19T05:41:45;102251.00;;;19.26;54.40
44349;BME280;30068;50.986;4.564;2023-02-19T05:44:10;102254.56;;;19.27;54.31
44349;BME280;30068;50.986;4.564;2023-02-19T05:46:35;102258.25;;;19.26;54.34
44349;BME280;30068;50.986;4.564;2023-02-19T05:49:00;102261.81;;;19.26;54.31
44349;BME280;30068;50.986;4.564;2023-02-19T05:51:27;102265.53;;;19.25;54.38
44349;BME280;30068;50.986;4.564;2023-02-19T05:53:52;102269.22;;;19.24;54.40
44349;BME280;30068;50.986;4.564;2023-02-19T05:58:56;102272.97;;;19.23;54.48
44349;BME280;30068;50.986;4.564;2023-02-19T06:01:22;102284.66;;;19.24;54.52
44349;BME280;30068;50.986;4.564;2023-02-19T06:03:48;102286.50;;;19.23;54.53
44349;BME280;30068;50.986;4.564;2023-02-19T06:06:14;102290.88;;;19.24;54.66
44349;BME280;30068;50.986;4.564;2023-02-19T06:08:39;102288.19;;;19.24;54.52
44349;BME280;30068;50.986;4.564;2023-02-19T06:11:04;102289.19;;;19.23;54.91
44349;BME280;30068;50.986;4.564;2023-02-19T06:13:30;102283.78;;;19.23;54.57
44349;BME280;30068;50.986;4.564;2023-02-19T06:15:55;102285.66;;;19.23;54.67
44349;BME280;30068;50.986;4.564;2023-02-19T06:18:20;102286.50;;;19.23;54.77
44349;BME280;30068;50.986;4.564;2023-02-19T06:20:45;102285.66;;;19.23;54.84
44349;BME280;30068;50.986;4.564;2023-02-19T06:23:11;102296.59;;;19.21;54.53
44349;BME280;30068;50.986;4.564;2023-02-19T06:25:36;102295.63;;;19.22;54.53
44349;BME280;30068;50.986;4.564;2023-02-19T06:28:01;102290.88;;;19.24;54.47
44349;BME280;30068;50.986;4.564;2023-02-19T06:30:26;102295.47;;;19.24;54.70
44349;BME280;30068;50.986;4.564;2023-02-19T06:32:52;102297.72;;;19.28;54.51
44349;BME280;30068;50.986;4.564;2023-02-19T06:35:18;102301.16;;;19.30;54.54
44349;BME280;30068;50.986;4.564;2023-02-19T06:37:45;102298.28;;;19.32;54.65
44349;BME280;30068;50.986;4.564;2023-02-19T06:40:10;102301.09;;;19.40;54.58
44349;BME280;30068;50.986;4.564;2023-02-19T06:42:35;102302.53;;;19.44;54.54
44349;BME280;30068;50.986;4.564;2023-02-19T06:45:00;102298.53;;;19.39;54.36
44349;BME280;30068;50.986;4.564;2023-02-19T06:47:29;102302.28;;;19.38;54.65
44349;BME280;30068;50.986;4.564;2023-02-19T06:49:54;102304.25;;;19.36;55.01
44349;BME280;30068;50.986;4.564;2023-02-19T06:52:19;102302.34;;;19.46;54.59
44349;BME280;30068;50.986;4.564;2023-02-19T06:54:45;102309.91;;;19.52;54.71
44349;BME280;30068;50.986;4.564;2023-02-19T06:57:10;102310.16;;;19.58;54.30
44349;BME280;30068;50.986;4.564;2023-02-19T06:59:35;102313.91;;;19.57;54.55
44349;BME280;30068;50.986;4.564;2023-02-19T07:02:00;102316.75;;;19.56;54.43
44349;BME280;30068;50.986;4.564;2023-02-19T07:04:25;102323.88;;;19.57;54.42
44349;BME280;30068;50.986;4.564;2023-02-19T07:06:51;102328.97;;;19.60;54.39
44349;BME280;30068;50.986;4.564;2023-02-19T07:09:16;102327.00;;;19.62;54.34
44349;BME280;30068;50.986;4.564;2023-02-19T07:11:41;102331.28;;;19.64;54.28
44349;BME280;30068;50.986;4.564;2023-02-19T07:14:07;102327.69;;;19.64;54.20
44349;BME280;30068;50.986;4.564;2023-02-19T07:16:33;102329.25;;;19.66;54.11
44349;BME280;30068;50.986;4.564;2023-02-19T07:18:58;102337.22;;;19.68;54.29
44349;BME280;30068;50.986;4.564;2023-02-19T07:21:24;102347.06;;;19.69;54.17
44349;BME280;30068;50.986;4.564;2023-02-19T07:23:50;102346.91;;;19.70;54.35
44349;BME280;30068;50.986;4.564;2023-02-19T07:26:16;102346.75;;;19.72;53.81
44349;BME280;30068;50.986;4.564;2023-02-19T07:28:42;102353.88;;;19.73;54.02
44349;BME280;30068;50.986;4.564;2023-02-19T07:31:08;102352.88;;;19.74;54.21
44349;BME280;30068;50.986;4.564;2023-02-19T07:33:33;102354.72;;;19.73;53.96
44349;BME280;30068;50.986;4.564;2023-02-19T07:35:58;102363.72;;;19.74;53.84
44349;BME280;30068;50.986;4.564;2023-02-19T07:38:24;102371.69;;;19.76;53.84
44349;BME280;30068;50.986;4.564;2023-02-19T07:40:50;102361.72;;;19.76;53.51
44349;BME280;30068;50.986;4.564;2023-02-19T07:43:16;102365.41;;;19.75;53.83
44349;BME280;30068;50.986;4.564;2023-02-19T07:45:41;102369.00;;;19.76;53.71
44349;BME280;30068;50.986;4.564;2023-02-19T07:48:06;102385.25;;;19.76;53.47
44349;BME280;30068;50.986;4.564;2023-02-19T07:50:31;102386.25;;;19.75;53.43
44349;BME280;30068;50.986;4.564;2023-02-19T07:52:57;102384.38;;;19.75;53.60
44349;BME280;30068;50.986;4.564;2023-02-19T07:55:22;102386.25;;;19.75;53.81
44349;BME280;30068;50.986;4.564;2023-02-19T07:57:47;102399.78;;;19.75;53.79
44349;BME280;30068;50.986;4.564;2023-02-19T08:00:13;102395.94;;;19.77;53.77
44349;BME280;30068;50.986;4.564;2023-02-19T08:02:38;102402.50;;;19.75;53.89
44349;BME280;30068;50.986;4.564;2023-02-19T08:05:22;102409.75;;;19.74;53.80
44349;BME280;30068;50.986;4.564;2023-02-19T08:07:47;102408.75;;;19.75;53.88
44349;BME280;30068;50.986;4.564;2023-02-19T08:10:12;102420.59;;;19.74;53.84
44349;BME280;30068;50.986;4.564;2023-02-19T08:12:56;102424.47;;;19.62;53.12
44349;BME280;30068;50.986;4.564;2023-02-19T08:15:41;102428.75;;;19.64;53.74
44349;BME280;30068;50.986;4.564;2023-02-19T08:18:06;102437.03;;;19.63;53.71
44349;BME280;30068;50.986;4.564;2023-02-19T08:20:32;102443.44;;;19.62;53.82
44349;BME280;30068;50.986;4.564;2023-02-19T08:22:57;102436.16;;;19.62;54.03
44349;BME280;30068;50.986;4.564;2023-02-19T08:25:22;102443.44;;;19.62;53.78
44349;BME280;30068;50.986;4.564;2023-02-19T08:27:48;102448.00;;;19.61;54.01
44349;BME280;30068;50.986;4.564;2023-02-19T08:30:13;102451.69;;;19.60;54.04
44349;BME280;30068;50.986;4.564;2023-02-19T08:32:38;102458.13;;;19.59;54.30
44349;BME280;30068;50.986;4.564;2023-02-19T08:35:03;102457.25;;;19.59;54.03
44349;BME280;30068;50.986;4.564;2023-02-19T08:37:29;102468.09;;;19.59;54.20
44349;BME280;30068;50.986;4.564;2023-02-19T08:39:54;102476.91;;;19.32;52.09
44349;BME280;30068;50.986;4.564;2023-02-19T08:42:19;102476.34;;;19.38;52.97
44349;BME280;30068;50.986;4.564;2023-02-19T08:44:44;102476.34;;;19.38;53.05
44349;BME280;30068;50.986;4.564;2023-02-19T08:47:09;102482.63;;;19.39;53.02
44349;BME280;30068;50.986;4.564;2023-02-19T08:49:35;102487.16;;;19.38;53.20
44349;BME280;30068;50.986;4.564;2023-02-19T08:52:00;102489.75;;;19.40;53.38
44349;BME280;30068;50.986;4.564;2023-02-19T08:54:25;102498.84;;;19.39;53.67
44349;BME280;30068;50.986;4.564;2023-02-19T08:56:50;102497.19;;;19.38;53.44
44349;BME280;30068;50.986;4.564;2023-02-19T08:59:16;102499.72;;;19.39;54.00
44349;BME280;30068;50.986;4.564;2023-02-19T09:01:41;102506.00;;;19.40;53.68
44349;BME280;30068;50.986;4.564;2023-02-19T09:04:07;102504.00;;;19.42;53.54
44349;BME280;30068;50.986;4.564;2023-02-19T09:06:34;102506.72;;;19.42;53.80
44349;BME280;30068;50.986;4.564;2023-02-19T09:08:59;102495.16;;;19.40;54.00
44349;BME280;30068;50.986;4.564;2023-02-19T09:11:24;102500.56;;;19.40;54.13
44349;BME280;30068;50.986;4.564;2023-02-19T09:13:49;102500.56;;;19.40;53.96
44349;BME280;30068;50.986;4.564;2023-02-19T09:16:15;102503.28;;;19.40;54.24
44349;BME280;30068;50.986;4.564;2023-02-19T09:18:40;102504.13;;;19.40;54.21
44349;BME280;30068;50.986;4.564;2023-02-19T09:21:05;102507.69;;;19.41;53.89
44349;BME280;30068;50.986;4.564;2023-02-19T09:23:31;102509.56;;;19.40;54.29
44349;BME280;30068;50.986;4.564;2023-02-19T09:25:57;102516.81;;;19.40;54.04
44349;BME280;30068;50.986;4.564;2023-02-19T09:28:23;102518.53;;;19.41;54.16
44349;BME280;30068;50.986;4.564;2023-02-19T09:30:49;102510.41;;;19.41;54.47
44349;BME280;30068;50.986;4.564;2023-02-19T09:33:14;102506.84;;;19.40;54.37
44349;BME280;30068;50.986;4.564;2023-02-19T09:35:39;102509.69;;;19.39;54.61
44349;BME280;30068;50.986;4.564;2023-02-19T09:38:04;102511.41;;;19.40;54.38
44349;BME280;30068;50.986;4.564;2023-02-19T09:40:30;102509.69;;;19.39;54.27
44349;BME280;30068;50.986;4.564;2023-02-19T09:42:55;102518.53;;;19.41;54.38
44349;BME280;30068;50.986;4.564;2023-02-19T09:45:21;102506.97;;;19.39;54.52
44349;BME280;30068;50.986;4.564;2023-02-19T09:47:47;102511.41;;;19.40;54.48
44349;BME280;30068;50.986;4.564;2023-02-19T09:50:15;102502.44;;;19.39;54.36
44349;BME280;30068;50.986;4.564;2023-02-19T09:57:49;102521.53;;;19.38;54.70
44349;BME280;30068;50.986;4.564;2023-02-19T10:00:22;102524.25;;;19.38;54.29
44349;BME280;30068;50.986;4.564;2023-02-19T10:02:51;102518.84;;;19.38;54.46
44349;BME280;30068;50.986;4.564;2023-02-19T10:05:17;102541.47;;;19.37;54.64
44349;BME280;30068;50.986;4.564;2023-02-19T10:07:43;102540.50;;;19.38;54.37
44349;BME280;30068;50.986;4.564;2023-02-19T10:12:38;102537.91;;;19.36;54.56
44349;BME280;30068;50.986;4.564;2023-02-19T10:15:10;102546.72;;;19.38;54.37
44349;BME280;30068;50.986;4.564;2023-02-19T10:17:36;102550.47;;;19.37;54.62
44349;BME280;30068;50.986;4.564;2023-02-19T10:20:02;102565.69;;;19.38;54.17
44349;BME280;30068;50.986;4.564;2023-02-19T10:22:28;102554.16;;;19.36;54.48
44349;BME280;30068;50.986;4.564;2023-02-19T10:24:54;102557.72;;;19.37;54.60
44349;BME280;30068;50.986;4.564;2023-02-19T10:27:20;102558.59;;;19.37;54.59
44349;BME280;30068;50.986;4.564;2023-02-19T10:29:46;102565.84;;;19.37;54.43
44349;BME280;30068;50.986;4.564;2023-02-19T10:32:16;102562.28;;;19.36;54.46
44349;BME280;30068;50.986;4.564;2023-02-19T10:34:45;102565.00;;;19.36;54.71
44349;BME280;30068;50.986;4.564;2023-02-19T10:37:14;102555.03;;;19.37;54.64
44349;BME280;30068;50.986;4.564;2023-02-19T10:39:49;102570.41;;;19.36;54.64
44349;BME280;30068;50.986;4.564;2023-02-19T10:42:15;102573.97;;;19.37;54.68
44349;BME280;30068;50.986;4.564;2023-02-19T10:44:41;102582.09;;;19.37;54.62
44349;BME280;30068;50.986;4.564;2023-02-19T10:47:07;102584.81;;;19.37;54.58
44349;BME280;30068;50.986;4.564;2023-02-19T10:49:39;102605.59;;;19.36;54.56
44349;BME280;30068;50.986;4.564;2023-02-19T10:52:21;102590.22;;;19.37;54.57
44349;BME280;30068;50.986;4.564;2023-02-19T10:54:49;102595.63;;;19.37;54.71
44349;BME280;30068;50.986;4.564;2023-02-19T10:59:53;102616.84;;;19.41;54.59
44349;BME280;30068;50.986;4.564;2023-02-19T11:02:21;102620.56;;;19.40;54.93
44349;BME280;30068;50.986;4.564;2023-02-19T11:05:14;102600.19;;;19.46;54.68
44349;BME280;30068;50.986;4.564;2023-02-19T11:10:22;102604.78;;;19.55;54.39
44349;BME280;30068;50.986;4.564;2023-02-19T11:12:49;102604.91;;;19.53;54.43
44349;BME280;30068;50.986;4.564;2023-02-19T11:15:29;102618.59;;;19.52;54.97
44349;BME280;30068;50.986;4.564;2023-02-19T11:18:06;102627.56;;;19.52;54.85
44349;BME280;30068;50.986;4.564;2023-02-19T11:20:34;102617.78;;;19.51;54.67
44349;BME280;30068;50.986;4.564;2023-02-19T11:23:00;102617.59;;;19.53;54.55
44349;BME280;30068;50.986;4.564;2023-02-19T11:25:27;102620.31;;;19.53;54.72
44349;BME280;30068;50.986;4.564;2023-02-19T11:28:02;102632.84;;;19.54;54.51
44349;BME280;30068;50.986;4.564;2023-02-19T11:30:44;102611.19;;;19.54;54.64
44349;BME280;30068;50.986;4.564;2023-02-19T11:35:37;102614.63;;;19.56;54.14
44349;BME280;30068;50.986;4.564;2023-02-19T11:38:04;102633.59;;;19.56;54.45
44349;BME280;30068;50.986;4.564;2023-02-19T11:45:52;102628.88;;;19.58;54.57
44349;BME280;30068;50.986;4.564;2023-02-19T11:48:31;102624.47;;;19.57;54.19
44349;BME280;30068;50.986;4.564;2023-02-19T11:53:34;102630.88;;;19.56;54.04
44349;BME280;30068;50.986;4.564;2023-02-19T11:56:14;102626.31;;;19.56;54.22
44349;BME280;30068;50.986;4.564;2023-02-19T12:04:07;102611.19;;;19.54;54.68
44349;BME280;30068;50.986;4.564;2023-02-19T12:11:57;102583.25;;;19.53;54.67
44349;BME280;30068;50.986;4.564;2023-02-19T12:19:30;102583.56;;;19.50;54.57
44349;BME280;30068;50.986;4.564;2023-02-19T12:22:05;102593.53;;;19.50;54.31
44349;BME280;30068;50.986;4.564;2023-02-19T12:38:08;102590.38;;;19.45;54.22
44349;BME280;30068;50.986;4.564;2023-02-19T12:40:47;102595.66;;;19.46;54.34
44349;BME280;30068;50.986;4.564;2023-02-19T12:43:16;102606.63;;;19.45;54.37
44349;BME280;30068;50.986;4.564;2023-02-19T12:50:41;102621.16;;;19.44;54.35
44349;BME280;30068;50.986;4.564;2023-02-19T12:53:16;102625.69;;;19.43;54.22
44349;BME280;30068;50.986;4.564;2023-02-19T12:55:43;102623.13;;;19.42;54.12
44349;BME280;30068;50.986;4.564;2023-02-19T12:58:12;102628.28;;;19.45;54.33
44349;BME280;30068;50.986;4.564;2023-02-19T13:00:44;102635.53;;;19.44;54.58
44349;BME280;30068;50.986;4.564;2023-02-19T13:03:23;102641.22;;;19.41;54.65
44349;BME280;30068;50.986;4.564;2023-02-19T13:05:51;102651.38;;;19.49;54.77
44349;BME280;30068;50.986;4.564;2023-02-19T13:08:25;102648.56;;;19.50;55.12
44349;BME280;30068;50.986;4.564;2023-02-19T13:10:56;102653.41;;;19.56;54.89
44349;BME280;30068;50.986;4.564;2023-02-19T13:13:30;102647.69;;;19.59;54.61
44349;BME280;30068;50.986;4.564;2023-02-19T13:16:00;102646.13;;;19.57;54.59
44349;BME280;30068;50.986;4.564;2023-02-19T13:18:34;102638.00;;;19.57;54.73
44349;BME280;30068;50.986;4.564;2023-02-19T13:21:03;102640.56;;;19.58;54.94
44349;BME280;30068;50.986;4.564;2023-02-19T13:23:30;102639.72;;;19.58;54.89
44349;BME280;30068;50.986;4.564;2023-02-19T13:36:32;102674.78;;;19.69;54.51
44349;BME280;30068;50.986;4.564;2023-02-19T13:38:59;102665.38;;;19.73;54.02
44349;BME280;30068;50.986;4.564;2023-02-19T13:41:29;102671.09;;;19.70;54.33
44349;BME280;30068;50.986;4.564;2023-02-19T13:43:58;102669.25;;;19.70;54.12
44349;BME280;30068;50.986;4.564;2023-02-19T13:46:24;102668.25;;;19.71;54.03
44349;BME280;30068;50.986;4.564;2023-02-19T13:51:46;102676.22;;;19.73;54.03
44349;BME280;30068;50.986;4.564;2023-02-19T13:54:13;102675.53;;;19.71;54.24
44349;BME280;30068;50.986;4.564;2023-02-19T13:56:43;102677.19;;;19.72;54.48
44349;BME280;30068;50.986;4.564;2023-02-19T13:59:51;102674.50;;;19.72;54.45
44349;BME280;30068;50.986;4.564;2023-02-19T14:12:08;102702.16;;;19.76;54.58
44349;BME280;30068;50.986;4.564;2023-02-19T14:14:45;102699.47;;;19.76;54.46
44349;BME280;30068;50.986;4.564;2023-02-19T14:20:02;102693.91;;;19.77;54.82
44349;BME280;30068;50.986;4.564;2023-02-19T14:30:34;102711.88;;;19.78;54.53
44349;BME280;30068;50.986;4.564;2023-02-19T14:33:08;102725.25;;;19.80;54.82
44349;BME280;30068;50.986;4.564;2023-02-19T14:35:35;102721.00;;;19.77;55.00
44349;BME280;30068;50.986;4.564;2023-02-19T14:38:01;102733.56;;;19.78;54.90
44349;BME280;30068;50.986;4.564;2023-02-19T14:41:01;102737.94;;;19.79;55.05
44349;BME280;30068;50.986;4.564;2023-02-19T14:43:20;102742.69;;;19.77;54.93
44349;BME280;30068;50.986;4.564;2023-02-19T14:45:48;102735.53;;;19.76;55.29
44349;BME280;30068;50.986;4.564;2023-02-19T14:48:16;102737.25;;;19.77;55.04
44349;BME280;30068;50.986;4.564;2023-02-19T14:50:45;102742.81;;;19.76;55.09
44349;BME280;30068;50.986;4.564;2023-02-19T14:53:11;102738.38;;;19.75;54.76